sensor_id;sensor_type;location;lat;lon;timestamp;pressure;altitude;pressure_sealevel;temperature;humidity
45323;BME280;31382;50.200;8.674;2023-04-23T00:03:35;99570.84;;;15.30;68.75
45323;BME280;31382;50.200;8.674;2023-04-23T00:08:39;99584.84;;;15.26;69.03
45323;BME280;31382;50.200;8.674;2023-04-23T00:13:41;99578.88;;;15.18;69.18
45323;BME280;31382;50.200;8.674;2023-04-23T00:18:42;99583.81;;;15.02;69.88
45323;BME280;31382;50.200;8.674;2023-04-23T00:23:44;99589.69;;;14.99;69.99
45323;BME280;31382;50.200;8.674;2023-04-23T00:28:45;99576.00;;;14.94;70.19
45323;BME280;31382;50.200;8.674;2023-04-23T00:33:47;99578.19;;;14.85;70.33
45323;BME280;31382;50.200;8.674;2023-04-23T00:38:48;99578.31;;;14.91;70.31
45323;BME280;31382;50.200;8.674;2023-04-23T00:43:49;99585.63;;;14.90;70.32
45323;BME280;31382;50.200;8.674;2023-04-23T00:48:53;99582.69;;;14.92;70.16
45323;BME280;31382;50.200;8.674;2023-04-23T00:53:55;99585.09;;;14.81;70.71
45323;BME280;31382;50.200;8.674;2023-04-23T00:58:56;99578.63;;;14.82;70.71
45323;BME280;31382;50.200;8.674;2023-04-23T01:03:58;99572.81;;;14.79;70.90
45323;BME280;31382;50.200;8.674;2023-04-23T01:09:00;99576.19;;;14.74;71.28
45323;BME280;31382;50.200;8.674;2023-04-23T01:14:02;99576.66;;;14.71;71.39
45323;BME280;31382;50.200;8.674;2023-04-23T01:19:05;99577.75;;;14.63;71.58
45323;BME280;31382;50.200;8.674;2023-04-23T01:24:08;99574.22;;;14.63;71.77
45323;BME280;31382;50.200;8.674;2023-04-23T01:29:10;99582.66;;;14.48;72.26
45323;BME280;31382;50.200;8.674;2023-04-23T01:34:12;99587.25;;;14.41;72.85
45323;BME280;31382;50.200;8.674;2023-04-23T01:39:14;99588.34;;;14.33;72.91
45323;BME280;31382;50.200;8.674;2023-04-23T01:44:15;99603.63;;;14.21;73.53
45323;BME280;31382;50.200;8.674;2023-04-23T01:49:17;99599.91;;;14.15;73.55
45323;BME280;31382;50.200;8.674;2023-04-23T01:54:18;99605.13;;;14.17;73.82
45323;BME280;31382;50.200;8.674;2023-04-23T01:59:21;99611.59;;;14.09;74.13
45323;BME280;31382;50.200;8.674;2023-04-23T02:04:22;99603.75;;;14.01;74.63
45323;BME280;31382;50.200;8.674;2023-04-23T02:09:24;99601.75;;;13.89;74.85
45323;BME280;31382;50.200;8.674;2023-04-23T02:14:26;99609.69;;;13.84;75.33
45323;BME280;31382;50.200;8.674;2023-04-23T02:19:28;99617.94;;;13.89;75.20
45323;BME280;31382;50.200;8.674;2023-04-23T02:24:32;99624.81;;;13.92;75.42
45323;BME280;31382;50.200;8.674;2023-04-23T02:29:34;99628.28;;;13.99;75.19
45323;BME280;31382;50.200;8.674;2023-04-23T02:34:37;99618.91;;;14.02;75.39
45323;BME280;31382;50.200;8.674;2023-04-23T02:39:38;99617.94;;;13.96;75.52
45323;BME280;31382;50.200;8.674;2023-04-23T02:44:40;99611.47;;;13.97;75.74
45323;BME280;31382;50.200;8.674;2023-04-23T02:49:41;99617.69;;;13.98;75.65
45323;BME280;31382;50.200;8.674;2023-04-23T02:54:43;99617.28;;;14.01;75.79
45323;BME280;31382;50.200;8.674;2023-04-23T02:59:44;99619.75;;;14.02;75.78
45323;BME280;31382;50.200;8.674;2023-04-23T03:04:46;99618.53;;;13.98;75.64
45323;BME280;31382;50.200;8.674;2023-04-23T03:09:47;99623.09;;;13.98;76.01
45323;BME280;31382;50.200;8.674;2023-04-23T03:14:49;99628.97;;;13.88;76.18
45323;BME280;31382;50.200;8.674;2023-04-23T03:19:50;99629.56;;;13.90;76.34
45323;BME280;31382;50.200;8.674;2023-04-23T03:24:52;99631.81;;;14.00;75.89
45323;BME280;31382;50.200;8.674;2023-04-23T03:29:53;99628.50;;;13.98;76.23
45323;BME280;31382;50.200;8.674;2023-04-23T03:34:54;99634.91;;;14.03;76.03
45323;BME280;31382;50.200;8.674;2023-04-23T03:39:56;99630.13;;;14.05;75.72
45323;BME280;31382;50.200;8.674;2023-04-23T03:44:58;99630.13;;;14.05;75.82
45323;BME280;31382;50.200;8.674;2023-04-23T03:49:59;99630.56;;;14.02;76.09
45323;BME280;31382;50.200;8.674;2023-04-23T03:55:01;99632.44;;;14.02;76.03
45323;BME280;31382;50.200;8.674;2023-04-23T04:00:03;99629.72;;;14.02;76.13
45323;BME280;31382;50.200;8.674;2023-04-23T04:05:08;99629.50;;;14.03;76.02
45323;BME280;31382;50.200;8.674;2023-04-23T04:10:11;99626.81;;;14.03;75.91
45323;BME280;31382;50.200;8.674;2023-04-23T04:15:14;99636.59;;;14.04;75.95
45323;BME280;31382;50.200;8.674;2023-04-23T04:20:17;99626.81;;;14.03;75.93
45323;BME280;31382;50.200;8.674;2023-04-23T04:25:18;99632.81;;;14.05;75.88
45323;BME280;31382;50.200;8.674;2023-04-23T04:30:23;99632.22;;;14.03;76.04
45323;BME280;31382;50.200;8.674;2023-04-23T04:35:24;99630.13;;;14.05;75.76
45323;BME280;31382;50.200;8.674;2023-04-23T04:40:26;99632.38;;;14.15;75.54
45323;BME280;31382;50.200;8.674;2023-04-23T04:45:28;99628.56;;;14.23;75.35
45323;BME280;31382;50.200;8.674;2023-04-23T04:50:30;99640.22;;;14.23;75.24
45323;BME280;31382;50.200;8.674;2023-04-23T04:55:31;99636.06;;;14.21;75.43
45323;BME280;31382;50.200;8.674;2023-04-23T05:00:32;99652.72;;;14.18;75.59
45323;BME280;31382;50.200;8.674;2023-04-23T05:05:34;99643.63;;;14.12;75.92
45323;BME280;31382;50.200;8.674;2023-04-23T05:10:36;99641.47;;;14.21;75.50
45323;BME280;31382;50.200;8.674;2023-04-23T05:15:37;99640.44;;;14.22;75.60
45323;BME280;31382;50.200;8.674;2023-04-23T05:20:39;99645.59;;;14.30;75.24
45323;BME280;31382;50.200;8.674;2023-04-23T05:25:41;99645.13;;;14.33;75.45
45323;BME280;31382;50.200;8.674;2023-04-23T05:30:42;99651.59;;;14.32;75.43
45323;BME280;31382;50.200;8.674;2023-04-23T05:35:44;99649.31;;;14.29;75.29
45323;BME280;31382;50.200;8.674;2023-04-23T05:40:45;99660.13;;;14.29;75.36
45323;BME280;31382;50.200;8.674;2023-04-23T05:45:47;99658.03;;;14.31;75.06
45323;BME280;31382;50.200;8.674;2023-04-23T05:50:48;99665.94;;;14.33;75.01
45323;BME280;31382;50.200;8.674;2023-04-23T05:55:49;99658.44;;;14.35;75.13
45323;BME280;31382;50.200;8.674;2023-04-23T06:00:51;99658.78;;;14.45;75.18
45323;BME280;31382;50.200;8.674;2023-04-23T06:05:53;99668.78;;;14.44;75.09
45323;BME280;31382;50.200;8.674;2023-04-23T06:10:55;99671.66;;;14.56;74.91
45323;BME280;31382;50.200;8.674;2023-04-23T06:15:57;99670.97;;;14.61;74.83
45323;BME280;31382;50.200;8.674;2023-04-23T06:20:58;99673.00;;;14.72;74.68
45323;BME280;31382;50.200;8.674;2023-04-23T06:26:04;99670.00;;;14.80;74.59
45323;BME280;31382;50.200;8.674;2023-04-23T06:31:05;99672.09;;;14.78;74.39
45323;BME280;31382;50.200;8.674;2023-04-23T06:36:08;99665.69;;;14.73;74.30
45323;BME280;31382;50.200;8.674;2023-04-23T06:41:12;99657.75;;;14.78;74.03
45323;BME280;31382;50.200;8.674;2023-04-23T06:46:13;99658.16;;;14.81;74.08
45323;BME280;31382;50.200;8.674;2023-04-23T06:51:15;99655.66;;;15.05;73.56
45323;BME280;31382;50.200;8.674;2023-04-23T06:56:17;99671.00;;;15.11;73.35
45323;BME280;31382;50.200;8.674;2023-04-23T07:01:18;99668.59;;;15.03;73.40
45323;BME280;31382;50.200;8.674;2023-04-23T07:06:20;99647.25;;;15.13;72.94
45323;BME280;31382;50.200;8.674;2023-04-23T07:11:22;99642.56;;;15.02;72.60
45323;BME280;31382;50.200;8.674;2023-04-23T07:16:24;99633.50;;;15.15;72.26
45323;BME280;31382;50.200;8.674;2023-04-23T07:21:26;99629.13;;;15.32;71.86
45323;BME280;31382;50.200;8.674;2023-04-23T07:26:28;99628.06;;;15.52;71.12
45323;BME280;31382;50.200;8.674;2023-04-23T07:31:30;99628.13;;;15.63;71.17
45323;BME280;31382;50.200;8.674;2023-04-23T07:36:31;99628.56;;;15.97;70.33
45323;BME280;31382;50.200;8.674;2023-04-23T07:41:33;99634.75;;;16.04;70.12
45323;BME280;31382;50.200;8.674;2023-04-23T07:46:35;99632.28;;;16.15;69.41
45323;BME280;31382;50.200;8.674;2023-04-23T07:51:37;99631.38;;;16.21;68.77
45323;BME280;31382;50.200;8.674;2023-04-23T07:56:38;99627.53;;;16.40;68.28
45323;BME280;31382;50.200;8.674;2023-04-23T08:01:43;99625.44;;;16.54;67.50
45323;BME280;31382;50.200;8.674;2023-04-23T08:06:45;99623.84;;;16.77;66.95
45323;BME280;31382;50.200;8.674;2023-04-23T08:11:46;99618.09;;;17.09;66.27
45323;BME280;31382;50.200;8.674;2023-04-23T08:16:48;99624.22;;;17.28;65.91
45323;BME280;31382;50.200;8.674;2023-04-23T08:21:49;99616.91;;;17.28;65.03
45323;BME280;31382;50.200;8.674;2023-04-23T08:26:52;99615.97;;;17.22;64.45
45323;BME280;31382;50.200;8.674;2023-04-23T08:31:53;99613.69;;;17.31;64.37
45323;BME280;31382;50.200;8.674;2023-04-23T08:36:55;99602.00;;;17.42;64.02
45323;BME280;31382;50.200;8.674;2023-04-23T08:42:00;99599.97;;;17.50;63.70
45323;BME280;31382;50.200;8.674;2023-04-23T08:47:06;99598.91;;;17.39;63.69
45323;BME280;31382;50.200;8.674;2023-04-23T08:52:15;99599.97;;;17.50;62.58
45323;BME280;31382;50.200;8.674;2023-04-23T08:57:20;99602.97;;;17.65;62.03
45323;BME280;31382;50.200;8.674;2023-04-23T09:02:22;99605.00;;;17.70;61.48
45323;BME280;31382;50.200;8.674;2023-04-23T09:07:24;99592.00;;;17.72;61.19
45323;BME280;31382;50.200;8.674;2023-04-23T09:12:26;99588.94;;;17.97;60.75
45323;BME280;31382;50.200;8.674;2023-04-23T09:17:28;99587.53;;;18.23;60.13
45323;BME280;31382;50.200;8.674;2023-04-23T09:22:44;99579.88;;;18.37;59.60
45323;BME280;31382;50.200;8.674;2023-04-23T09:27:50;99567.66;;;18.39;59.55
45323;BME280;31382;50.200;8.674;2023-04-23T09:32:52;99564.69;;;18.75;58.88
45323;BME280;31382;50.200;8.674;2023-04-23T09:37:54;99555.94;;;19.29;57.80
45323;BME280;31382;50.200;8.674;2023-04-23T09:42:55;99552.75;;;19.37;57.16
45323;BME280;31382;50.200;8.674;2023-04-23T09:47:57;99548.44;;;19.41;56.80
45323;BME280;31382;50.200;8.674;2023-04-23T09:52:59;99550.19;;;19.47;56.51
45323;BME280;31382;50.200;8.674;2023-04-23T09:58:02;99549.09;;;19.48;55.98
45323;BME280;31382;50.200;8.674;2023-04-23T10:03:06;99536.53;;;19.69;55.13
45323;BME280;31382;50.200;8.674;2023-04-23T10:08:09;99539.38;;;19.79;54.71
45323;BME280;31382;50.200;8.674;2023-04-23T10:13:13;99531.66;;;19.71;54.82
45323;BME280;31382;50.200;8.674;2023-04-23T10:18:15;99524.69;;;20.13;54.63
45323;BME280;31382;50.200;8.674;2023-04-23T10:23:18;99525.41;;;20.35;54.25
45323;BME280;31382;50.200;8.674;2023-04-23T10:28:21;99523.56;;;20.41;54.58
45323;BME280;31382;50.200;8.674;2023-04-23T10:33:30;99520.81;;;20.41;53.51
45323;BME280;31382;50.200;8.674;2023-04-23T10:38:44;99523.31;;;20.43;53.21
45323;BME280;31382;50.200;8.674;2023-04-23T10:43:58;99526.13;;;20.20;53.32
45323;BME280;31382;50.200;8.674;2023-04-23T10:49:07;99518.19;;;19.87;52.72
45323;BME280;31382;50.200;8.674;2023-04-23T10:54:08;99514.78;;;19.74;52.32
45323;BME280;31382;50.200;8.674;2023-04-23T10:59:20;99507.44;;;19.75;51.71
45323;BME280;31382;50.200;8.674;2023-04-23T11:04:26;99505.09;;;19.67;51.93
45323;BME280;31382;50.200;8.674;2023-04-23T11:09:37;99502.25;;;19.78;51.68
45323;BME280;31382;50.200;8.674;2023-04-23T11:14:46;99502.81;;;19.09;54.73
45323;BME280;31382;50.200;8.674;2023-04-23T11:20:21;99481.94;;;18.03;58.09
45323;BME280;31382;50.200;8.674;2023-04-23T11:25:25;99475.66;;;18.19;59.18
45323;BME280;31382;50.200;8.674;2023-04-23T11:30:30;99475.16;;;18.39;58.75
45323;BME280;31382;50.200;8.674;2023-04-23T11:35:34;99479.00;;;18.60;57.96
45323;BME280;31382;50.200;8.674;2023-04-23T11:40:40;99463.88;;;18.70;58.00
45323;BME280;31382;50.200;8.674;2023-04-23T11:45:43;99449.16;;;18.88;57.41
45323;BME280;31382;50.200;8.674;2023-04-23T11:50:45;99454.81;;;18.81;57.14
45323;BME280;31382;50.200;8.674;2023-04-23T11:55:47;99440.31;;;18.58;57.23
45323;BME280;31382;50.200;8.674;2023-04-23T12:00:56;99448.41;;;18.36;57.34
45323;BME280;31382;50.200;8.674;2023-04-23T12:05:58;99466.78;;;17.61;58.81
45323;BME280;31382;50.200;8.674;2023-04-23T12:11:01;99452.59;;;16.66;61.51
45323;BME280;31382;50.200;8.674;2023-04-23T12:16:03;99438.16;;;16.37;61.76
45323;BME280;31382;50.200;8.674;2023-04-23T12:21:06;99430.66;;;16.68;60.46
45323;BME280;31382;50.200;8.674;2023-04-23T12:26:12;99414.34;;;16.92;59.07
45323;BME280;31382;50.200;8.674;2023-04-23T12:31:22;99423.34;;;17.21;58.48
45323;BME280;31382;50.200;8.674;2023-04-23T12:36:26;99406.81;;;17.68;56.90
45323;BME280;31382;50.200;8.674;2023-04-23T12:41:29;99420.91;;;18.33;55.67
45323;BME280;31382;50.200;8.674;2023-04-23T12:46:33;99405.59;;;18.88;54.91
45323;BME280;31382;50.200;8.674;2023-04-23T12:51:35;99388.06;;;19.28;55.22
45323;BME280;31382;50.200;8.674;2023-04-23T12:56:36;99362.78;;;19.97;54.20
45323;BME280;31382;50.200;8.674;2023-04-23T13:01:37;99353.41;;;20.25;53.00
45323;BME280;31382;50.200;8.674;2023-04-23T13:06:40;99344.25;;;20.52;52.21
45323;BME280;31382;50.200;8.674;2023-04-23T13:11:41;99327.03;;;21.61;50.68
45323;BME280;31382;50.200;8.674;2023-04-23T13:16:43;99312.50;;;21.86;49.12
45323;BME280;31382;50.200;8.674;2023-04-23T13:21:44;99302.88;;;22.14;48.12
45323;BME280;31382;50.200;8.674;2023-04-23T13:26:46;99306.84;;;22.52;46.49
45323;BME280;31382;50.200;8.674;2023-04-23T13:31:47;99298.31;;;22.64;45.80
45323;BME280;31382;50.200;8.674;2023-04-23T13:36:49;99290.44;;;22.52;45.16
45323;BME280;31382;50.200;8.674;2023-04-23T13:41:50;99270.97;;;22.59;45.20
45323;BME280;31382;50.200;8.674;2023-04-23T13:47:09;99269.03;;;23.09;43.93
45323;BME280;31382;50.200;8.674;2023-04-23T13:52:11;99259.25;;;23.32;42.32
45323;BME280;31382;50.200;8.674;2023-04-23T13:57:12;99248.31;;;23.27;42.38
45323;BME280;31382;50.200;8.674;2023-04-23T14:02:13;99239.47;;;23.65;41.77
45323;BME280;31382;50.200;8.674;2023-04-23T14:07:15;99236.97;;;23.68;39.83
45323;BME280;31382;50.200;8.674;2023-04-23T14:12:16;99221.25;;;23.74;38.33
45323;BME280;31382;50.200;8.674;2023-04-23T14:17:18;99228.13;;;23.71;37.13
45323;BME280;31382;50.200;8.674;2023-04-23T14:22:20;99215.91;;;24.55;36.00
45323;BME280;31382;50.200;8.674;2023-04-23T14:27:21;99202.38;;;24.97;34.32
45323;BME280;31382;50.200;8.674;2023-04-23T14:32:23;99184.84;;;25.25;33.39
45323;BME280;31382;50.200;8.674;2023-04-23T14:37:24;99169.50;;;25.38;32.89
45323;BME280;31382;50.200;8.674;2023-04-23T14:42:25;99163.59;;;25.45;31.90
45323;BME280;31382;50.200;8.674;2023-04-23T14:47:27;99162.00;;;24.59;31.86
45323;BME280;31382;50.200;8.674;2023-04-23T14:52:29;99151.13;;;24.49;32.59
45323;BME280;31382;50.200;8.674;2023-04-23T14:57:31;99146.09;;;24.37;32.67
45323;BME280;31382;50.200;8.674;2023-04-23T15:02:33;99138.88;;;24.41;32.29
45323;BME280;31382;50.200;8.674;2023-04-23T15:07:36;99131.22;;;24.38;32.29
45323;BME280;31382;50.200;8.674;2023-04-23T15:12:42;99123.63;;;24.11;32.09
45323;BME280;31382;50.200;8.674;2023-04-23T15:17:48;99129.56;;;23.75;32.48
45323;BME280;31382;50.200;8.674;2023-04-23T15:22:49;99117.22;;;23.53;32.87
45323;BME280;31382;50.200;8.674;2023-04-23T15:27:52;99111.72;;;23.29;32.76
45323;BME280;31382;50.200;8.674;2023-04-23T15:32:57;99107.91;;;22.96;32.83
45323;BME280;31382;50.200;8.674;2023-04-23T15:37:59;99098.72;;;22.82;33.61
45323;BME280;31382;50.200;8.674;2023-04-23T15:43:02;99098.13;;;22.85;33.43
45323;BME280;31382;50.200;8.674;2023-04-23T15:48:03;99095.13;;;22.86;33.90
45323;BME280;31382;50.200;8.674;2023-04-23T15:53:05;99087.00;;;22.76;34.06
45323;BME280;31382;50.200;8.674;2023-04-23T15:58:06;99070.75;;;22.85;33.92
45323;BME280;31382;50.200;8.674;2023-04-23T16:03:08;99077.59;;;22.53;34.63
45323;BME280;31382;50.200;8.674;2023-04-23T16:08:10;99075.44;;;22.50;34.59
45323;BME280;31382;50.200;8.674;2023-04-23T16:13:12;99071.13;;;22.44;34.66
45323;BME280;31382;50.200;8.674;2023-04-23T16:18:13;99065.53;;;22.14;35.32
45323;BME280;31382;50.200;8.674;2023-04-23T16:23:14;99072.06;;;21.74;35.84
45323;BME280;31382;50.200;8.674;2023-04-23T16:28:16;99075.38;;;21.66;36.09
45323;BME280;31382;50.200;8.674;2023-04-23T16:33:17;99065.63;;;21.44;36.24
45323;BME280;31382;50.200;8.674;2023-04-23T16:38:19;99068.94;;;21.31;36.04
45323;BME280;31382;50.200;8.674;2023-04-23T16:43:20;99110.81;;;21.00;37.39
45323;BME280;31382;50.200;8.674;2023-04-23T16:48:21;99161.19;;;17.96;50.99
45323;BME280;31382;50.200;8.674;2023-04-23T16:53:23;99169.94;;;16.41;57.85
45323;BME280;31382;50.200;8.674;2023-04-23T16:58:24;99177.97;;;15.78;59.68
45323;BME280;31382;50.200;8.674;2023-04-23T17:03:26;99179.00;;;15.54;61.00
45323;BME280;31382;50.200;8.674;2023-04-23T17:08:27;99176.56;;;15.05;62.75
45323;BME280;31382;50.200;8.674;2023-04-23T17:13:29;99155.88;;;14.99;62.99
45323;BME280;31382;50.200;8.674;2023-04-23T17:18:30;99145.38;;;15.02;63.27
45323;BME280;31382;50.200;8.674;2023-04-23T17:23:32;99143.38;;;14.98;63.90
45323;BME280;31382;50.200;8.674;2023-04-23T17:28:33;99123.63;;;15.09;64.46
45323;BME280;31382;50.200;8.674;2023-04-23T17:33:35;99107.84;;;15.18;64.57
45323;BME280;31382;50.200;8.674;2023-04-23T17:38:36;99097.22;;;15.16;64.90
45323;BME280;31382;50.200;8.674;2023-04-23T17:43:38;99119.38;;;14.90;66.36
45323;BME280;31382;50.200;8.674;2023-04-23T17:48:39;99117.72;;;15.00;66.44
45323;BME280;31382;50.200;8.674;2023-04-23T17:53:41;99115.97;;;15.06;66.50
45323;BME280;31382;50.200;8.674;2023-04-23T17:58:42;99112.19;;;15.19;66.78
45323;BME280;31382;50.200;8.674;2023-04-23T18:03:44;99110.91;;;15.21;66.87
45323;BME280;31382;50.200;8.674;2023-04-23T18:08:46;99111.13;;;15.20;67.75
45323;BME280;31382;50.200;8.674;2023-04-23T18:13:47;99113.81;;;15.32;67.93
45323;BME280;31382;50.200;8.674;2023-04-23T18:18:53;99104.16;;;15.36;68.63
45323;BME280;31382;50.200;8.674;2023-04-23T18:23:54;99109.47;;;15.31;69.07
45323;BME280;31382;50.200;8.674;2023-04-23T18:28:56;99110.75;;;15.40;69.29
45323;BME280;31382;50.200;8.674;2023-04-23T18:33:58;99117.22;;;15.39;69.77
45323;BME280;31382;50.200;8.674;2023-04-23T18:39:02;99109.47;;;15.31;69.99
45323;BME280;31382;50.200;8.674;2023-04-23T18:44:04;99113.16;;;15.13;70.58
45323;BME280;31382;50.200;8.674;2023-04-23T18:54:30;99115.50;;;15.09;70.49
45323;BME280;31382;50.200;8.674;2023-04-23T18:59:31;99110.31;;;15.07;70.45
45323;BME280;31382;50.200;8.674;2023-04-23T19:04:35;99119.84;;;14.86;70.82
45323;BME280;31382;50.200;8.674;2023-04-23T19:09:38;99126.41;;;14.79;70.53
45323;BME280;31382;50.200;8.674;2023-04-23T19:14:40;99133.00;;;14.71;70.83
45323;BME280;31382;50.200;8.674;2023-04-23T19:19:41;99122.06;;;14.66;70.89
45323;BME280;31382;50.200;8.674;2023-04-23T19:24:43;99117.09;;;14.63;70.75
45323;BME280;31382;50.200;8.674;2023-04-23T19:29:44;99138.44;;;14.71;70.25
45323;BME280;31382;50.200;8.674;2023-04-23T19:34:46;99124.75;;;14.66;70.30
45323;BME280;31382;50.200;8.674;2023-04-23T19:39:48;99138.88;;;14.68;70.10
45323;BME280;31382;50.200;8.674;2023-04-23T19:44:50;99126.66;;;14.65;69.80
45323;BME280;31382;50.200;8.674;2023-04-23T19:49:51;99119.06;;;14.56;69.81
45323;BME280;31382;50.200;8.674;2023-04-23T19:54:53;99125.16;;;14.51;69.63
45323;BME280;31382;50.200;8.674;2023-04-23T19:59:54;99126.22;;;14.50;69.79
45323;BME280;31382;50.200;8.674;2023-04-23T20:04:55;99139.06;;;14.55;69.56
45323;BME280;31382;50.200;8.674;2023-04-23T20:09:57;99131.34;;;14.58;69.52
45323;BME280;31382;50.200;8.674;2023-04-23T20:14:58;99137.16;;;14.55;69.66
45323;BME280;31382;50.200;8.674;2023-04-23T20:19:59;99130.50;;;14.58;69.94
45323;BME280;31382;50.200;8.674;2023-04-23T20:25:03;99135.44;;;14.61;69.93
45323;BME280;31382;50.200;8.674;2023-04-23T20:30:07;99135.00;;;14.64;70.04
45323;BME280;31382;50.200;8.674;2023-04-23T20:35:10;99131.34;;;14.70;70.03
45323;BME280;31382;50.200;8.674;2023-04-23T20:40:12;99135.25;;;14.74;69.74
45323;BME280;31382;50.200;8.674;2023-04-23T20:45:14;99131.47;;;14.63;70.22
45323;BME280;31382;50.200;8.674;2023-04-23T20:50:16;99125.22;;;14.75;69.90
45323;BME280;31382;50.200;8.674;2023-04-23T20:55:18;99126.53;;;14.84;69.76
45323;BME280;31382;50.200;8.674;2023-04-23T21:00:19;99126.66;;;14.77;70.06
45323;BME280;31382;50.200;8.674;2023-04-23T21:05:22;99137.50;;;14.77;69.96
45323;BME280;31382;50.200;8.674;2023-04-23T21:10:23;99133.00;;;14.71;70.26
45323;BME280;31382;50.200;8.674;2023-04-23T21:15:25;99142.19;;;14.70;70.27
45323;BME280;31382;50.200;8.674;2023-04-23T21:20:27;99138.41;;;14.59;70.23
45323;BME280;31382;50.200;8.674;2023-04-23T21:25:32;99148.69;;;14.51;70.22
45323;BME280;31382;50.200;8.674;2023-04-23T21:30:53;99142.91;;;14.47;70.56
45323;BME280;31382;50.200;8.674;2023-04-23T21:35:55;99136.22;;;14.50;70.14
45323;BME280;31382;50.200;8.674;2023-04-23T21:40:56;99149.97;;;14.48;70.07
45323;BME280;31382;50.200;8.674;2023-04-23T21:45:58;99138.44;;;14.41;70.11
45323;BME280;31382;50.200;8.674;2023-04-23T21:50:59;99153.47;;;14.37;70.13
45323;BME280;31382;50.200;8.674;2023-04-23T21:56:01;99151.94;;;14.41;69.87
45323;BME280;31382;50.200;8.674;2023-04-23T22:01:02;99151.28;;;14.45;69.57
45323;BME280;31382;50.200;8.674;2023-04-23T22:06:05;99159.03;;;14.42;69.77
45323;BME280;31382;50.200;8.674;2023-04-23T22:11:07;99153.97;;;14.45;69.82
45323;BME280;31382;50.200;8.674;2023-04-23T22:16:08;99154.22;;;14.56;69.41
45323;BME280;31382;50.200;8.674;2023-04-23T22:21:28;99155.28;;;14.55;69.24
45323;BME280;31382;50.200;8.674;2023-04-23T22:26:29;99140.03;;;14.60;69.02
45323;BME280;31382;50.200;8.674;2023-04-23T22:31:30;99145.09;;;14.68;68.57
45323;BME280;31382;50.200;8.674;2023-04-23T22:36:32;99144.75;;;14.65;68.50
45323;BME280;31382;50.200;8.674;2023-04-23T22:41:34;99139.81;;;14.62;68.21
45323;BME280;31382;50.200;8.674;2023-04-23T22:46:38;99135.69;;;14.59;68.06
45323;BME280;31382;50.200;8.674;2023-04-23T22:51:40;99125.81;;;14.65;67.99
45323;BME280;31382;50.200;8.674;2023-04-23T22:56:42;99132.00;;;14.54;67.87
45323;BME280;31382;50.200;8.674;2023-04-23T23:01:43;99146.16;;;14.37;68.09
45323;BME280;31382;50.200;8.674;2023-04-23T23:06:45;99142.28;;;14.33;68.16
45323;BME280;31382;50.200;8.674;2023-04-23T23:11:46;99132.31;;;14.34;68.01
45323;BME280;31382;50.200;8.674;2023-04-23T23:16:48;99117.34;;;14.31;67.79
45323;BME280;31382;50.200;8.674;2023-04-23T23:21:49;99109.75;;;14.40;67.51
45323;BME280;31382;50.200;8.674;2023-04-23T23:26:50;99114.81;;;14.36;67.42
45323;BME280;31382;50.200;8.674;2023-04-23T23:31:52;99113.25;;;14.28;67.13
45323;BME280;31382;50.200;8.674;2023-04-23T23:36:53;99106.50;;;14.19;67.36
45323;BME280;31382;50.200;8.674;2023-04-23T23:41:54;99116.13;;;14.15;67.32
45323;BME280;31382;50.200;8.674;2023-04-23T23:46:59;99112.72;;;14.08;67.23
45323;BME280;31382;50.200;8.674;2023-04-23T23:52:01;99115.88;;;14.05;67.05
45323;BME280;31382;50.200;8.674;2023-04-23T23:57:03;99116.56;;;14.00;67.08
